Time;durP1;ratioP1;P1;durP2;ratioP2;P2;SDS_P1;SDS_P2;PMS_P1;PMS_P2;Temp;Humidity;BMP_temperature;BMP_pressure;BME280_temperature;BME280_humidity;BME280_pressure;Samples;Min_cycle;Max_cycle;Signal;HPM_P1;HPM_P2
2022/07/17 00:01:33;;;;;;;6.28;5.12;;;24.90;69.90;;;;;;1916962;75;20998;-61
2022/07/17 00:04:02;;;;;;;8.95;4.60;;;24.70;70.20;;;;;;1917012;75;21014;-61
2022/07/17 00:06:31;;;;;;;6.58;4.62;;;24.60;71.10;;;;;;1916966;75;20998;-61
2022/07/17 00:09:00;;;;;;;6.83;4.67;;;24.50;71.30;;;;;;1917008;75;20989;-61
2022/07/17 00:11:29;;;;;;;5.45;4.00;;;24.60;71.60;;;;;;1917045;75;21022;-61
2022/07/17 00:13:58;;;;;;;8.40;4.67;;;24.60;72.10;;;;;;1917056;75;21374;-61
2022/07/17 00:16:27;;;;;;;6.40;4.03;;;24.60;72.00;;;;;;1916982;75;21014;-61
2022/07/17 00:18:56;;;;;;;5.55;4.33;;;24.60;72.20;;;;;;1916954;75;21065;-61
2022/07/17 00:21:25;;;;;;;7.15;4.75;;;24.60;72.20;;;;;;1917214;75;21422;-61
2022/07/17 00:23:54;;;;;;;5.90;4.95;;;24.60;71.90;;;;;;1916943;75;21096;-61
2022/07/17 00:26:23;;;;;;;4.28;3.87;;;24.60;71.70;;;;;;1917035;75;21068;-61
2022/07/17 00:28:52;;;;;;;6.08;4.12;;;24.60;72.00;;;;;;1916974;75;21507;-61
2022/07/17 00:31:21;;;;;;;7.60;4.65;;;24.60;72.30;;;;;;1916945;75;21010;-61
2022/07/17 00:33:51;;;;;;;8.75;5.10;;;24.60;72.40;;;;;;1916845;75;21104;-61
2022/07/17 00:36:20;;;;;;;8.65;5.10;;;24.60;72.10;;;;;;1916912;75;20971;-61
2022/07/17 00:38:48;;;;;;;8.63;5.28;;;24.60;71.90;;;;;;1916960;75;21002;-61
2022/07/17 00:41:17;;;;;;;4.67;4.12;;;24.50;71.80;;;;;;1916915;75;21002;-61
2022/07/17 00:43:46;;;;;;;4.28;3.92;;;24.40;72.10;;;;;;1916888;75;21048;-60
2022/07/17 00:46:15;;;;;;;5.00;4.17;;;24.30;72.60;;;;;;1916938;75;21073;-61
2022/07/17 00:48:44;;;;;;;6.08;4.08;;;24.20;72.90;;;;;;1917002;75;21060;-61
2022/07/17 00:51:13;;;;;;;4.10;3.70;;;24.20;73.30;;;;;;1916982;75;20974;-61
2022/07/17 00:53:44;;;;;;;5.65;3.77;;;24.30;73.50;;;;;;1916908;75;21026;-61
2022/07/17 00:56:15;;;;;;;6.10;3.95;;;24.30;73.50;;;;;;1916952;75;21060;-61
2022/07/17 00:58:45;;;;;;;6.30;4.75;;;24.30;73.50;;;;;;1916915;75;21010;-61
2022/07/17 01:01:14;;;;;;;5.22;4.60;;;24.40;73.70;;;;;;1917027;75;21465;-61
2022/07/17 01:03:43;;;;;;;5.28;4.78;;;24.40;73.60;;;;;;1916980;75;21015;-61
2022/07/17 01:06:12;;;;;;;6.67;4.37;;;24.40;73.30;;;;;;1916988;75;21473;-60
2022/07/17 01:08:41;;;;;;;5.12;4.50;;;24.40;73.30;;;;;;1916922;75;21068;-60
2022/07/17 01:11:10;;;;;;;5.83;4.58;;;24.40;73.20;;;;;;1917123;75;21105;-61
2022/07/17 01:13:39;;;;;;;6.53;4.85;;;24.40;73.40;;;;;;1916973;75;21433;-61
2022/07/17 01:16:09;;;;;;;6.87;4.95;;;24.40;73.50;;;;;;1917011;75;21006;-61
2022/07/17 01:18:38;;;;;;;5.78;4.53;;;24.40;73.60;;;;;;1916904;75;21060;-61
2022/07/17 01:21:07;;;;;;;7.78;6.08;;;24.30;73.50;;;;;;1916937;75;20970;-60
2022/07/17 01:23:36;;;;;;;10.05;6.25;;;24.30;73.50;;;;;;1916899;75;21017;-61
2022/07/17 01:26:05;;;;;;;6.50;4.92;;;24.30;73.40;;;;;;1917071;75;21006;-60
2022/07/17 01:28:34;;;;;;;6.05;4.47;;;24.30;73.30;;;;;;1921147;74;21549;-60
2022/07/17 01:31:03;;;;;;;5.97;4.80;;;24.30;73.30;;;;;;1924007;74;21005;-60
2022/07/17 01:33:32;;;;;;;6.47;4.40;;;24.30;73.60;;;;;;1923946;74;21026;-61
2022/07/17 01:36:01;;;;;;;6.45;4.70;;;24.30;73.70;;;;;;1923942;74;21002;-61
2022/07/17 01:38:30;;;;;;;8.55;5.35;;;24.30;73.70;;;;;;1924031;74;21030;-61
2022/07/17 01:41:00;;;;;;;5.47;4.60;;;24.30;73.70;;;;;;1923995;74;21060;-61
2022/07/17 01:43:29;;;;;;;5.58;4.97;;;24.30;73.80;;;;;;1923976;74;21006;-61
2022/07/17 01:45:57;;;;;;;6.67;5.03;;;24.30;73.90;;;;;;1924069;74;21064;-61
2022/07/17 01:48:29;;;;;;;5.92;4.70;;;24.30;74.00;;;;;;1923930;74;20994;-61
2022/07/17 01:50:58;;;;;;;7.87;4.92;;;24.30;74.10;;;;;;1923910;74;21006;-61
2022/07/17 01:53:27;;;;;;;5.65;5.05;;;24.30;74.30;;;;;;1924025;74;21017;-61
2022/07/17 01:55:56;;;;;;;7.62;5.37;;;24.30;74.30;;;;;;1923990;74;21005;-61
2022/07/17 01:58:25;;;;;;;6.90;5.03;;;24.30;74.40;;;;;;1923855;74;20986;-61
2022/07/17 02:00:54;;;;;;;7.97;5.50;;;24.30;74.50;;;;;;1923925;74;21006;-61
2022/07/17 02:03:23;;;;;;;5.92;5.33;;;24.30;74.20;;;;;;1923882;74;21067;-61
2022/07/17 02:05:52;;;;;;;5.67;4.90;;;24.20;74.00;;;;;;1924027;74;20975;-61
2022/07/17 02:08:21;;;;;;;6.90;5.40;;;24.10;74.40;;;;;;1923966;74;21029;-61
2022/07/17 02:10:50;;;;;;;10.80;5.55;;;24.10;74.60;;;;;;1923903;74;21034;-61
2022/07/17 02:13:19;;;;;;;12.10;5.35;;;24.10;74.60;;;;;;1923960;74;21068;-61
2022/07/17 02:15:48;;;;;;;12.05;6.15;;;24.00;74.60;;;;;;1923907;74;21469;-61
2022/07/17 02:18:17;;;;;;;9.15;5.08;;;24.00;74.40;;;;;;1924010;74;20962;-61
2022/07/17 02:20:49;;;;;;;6.87;4.65;;;24.00;74.90;;;;;;1923967;74;21002;-61
2022/07/17 02:23:17;;;;;;;6.53;5.10;;;24.00;75.30;;;;;;1923986;74;21021;-61
2022/07/17 02:25:46;;;;;;;9.80;4.53;;;24.00;74.90;;;;;;1923991;74;21002;-61
2022/07/17 02:28:15;;;;;;;8.05;4.87;;;23.90;75.00;;;;;;1923908;74;21042;-60
2022/07/17 02:30:44;;;;;;;7.72;4.72;;;23.90;75.30;;;;;;1923908;74;21068;-61
2022/07/17 02:33:13;;;;;;;10.50;4.90;;;23.90;75.40;;;;;;1924062;74;21002;-61
2022/07/17 02:35:42;;;;;;;6.70;4.60;;;23.90;75.30;;;;;;1923953;74;20978;-61
2022/07/17 02:38:11;;;;;;;7.12;4.78;;;24.00;75.30;;;;;;1923899;74;21523;-61
2022/07/17 02:40:41;;;;;;;5.87;4.45;;;24.10;75.40;;;;;;1923903;74;20998;-61
2022/07/17 02:43:11;;;;;;;6.90;4.92;;;24.10;75.30;;;;;;1924009;74;21112;-61
2022/07/17 02:45:40;;;;;;;9.18;5.45;;;24.20;75.00;;;;;;1923936;74;21060;-61
2022/07/17 02:48:08;;;;;;;6.42;4.47;;;24.10;74.90;;;;;;1923927;74;21457;-61
2022/07/17 02:50:38;;;;;;;6.85;4.80;;;24.10;75.20;;;;;;1923925;74;20998;-61
2022/07/17 02:53:06;;;;;;;7.42;5.22;;;24.00;75.30;;;;;;1923903;74;21060;-61
2022/07/17 02:55:35;;;;;;;10.10;5.90;;;24.00;75.30;;;;;;1923975;74;21422;-61
2022/07/17 02:58:04;;;;;;;8.18;5.37;;;24.00;75.10;;;;;;1923926;74;20986;-61
2022/07/17 03:00:33;;;;;;;11.38;5.30;;;23.90;75.10;;;;;;1923996;74;20978;-61
2022/07/17 03:03:02;;;;;;;9.05;5.72;;;23.90;75.20;;;;;;1924106;74;21002;-61
2022/07/17 03:05:31;;;;;;;9.35;5.97;;;23.80;75.50;;;;;;1924008;74;21041;-61
2022/07/17 03:08:00;;;;;;;11.30;6.78;;;23.80;75.80;;;;;;1923984;74;20982;-61
2022/07/17 03:10:29;;;;;;;11.50;6.58;;;23.80;75.70;;;;;;1924035;74;20995;-61
2022/07/17 03:12:58;;;;;;;14.55;6.37;;;23.90;75.60;;;;;;1924044;74;21009;-61
2022/07/17 03:15:27;;;;;;;9.80;5.97;;;24.00;75.60;;;;;;1924014;74;21088;-61
2022/07/17 03:17:56;;;;;;;12.85;6.62;;;24.10;75.50;;;;;;1923927;74;20970;-60
2022/07/17 03:20:25;;;;;;;14.13;7.25;;;24.20;75.10;;;;;;1923977;74;21010;-60
2022/07/17 03:22:54;;;;;;;13.20;6.47;;;24.30;74.70;;;;;;1924097;74;21495;-60
2022/07/17 03:25:23;;;;;;;12.68;5.95;;;24.30;74.40;;;;;;1923973;74;21068;-61
2022/07/17 03:27:51;;;;;;;9.33;6.22;;;24.20;74.30;;;;;;1923893;74;21014;-60
2022/07/17 03:30:20;;;;;;;13.40;6.87;;;24.20;74.40;;;;;;1918296;74;21445;-60
2022/07/17 03:32:49;;;;;;;9.63;6.10;;;24.20;74.50;;;;;;1916894;75;20982;-60
2022/07/17 03:35:19;;;;;;;13.40;5.70;;;24.20;74.70;;;;;;1916939;75;21052;-60
2022/07/17 03:37:48;;;;;;;12.78;5.80;;;24.40;74.60;;;;;;1916790;75;21018;-60
2022/07/17 03:40:17;;;;;;;9.85;5.67;;;24.50;74.30;;;;;;1916940;75;20972;-60
2022/07/17 03:42:46;;;;;;;12.15;5.42;;;24.50;74.20;;;;;;1916895;75;20998;-60
2022/07/17 03:45:15;;;;;;;12.18;6.33;;;24.60;74.10;;;;;;1916863;75;21060;-60
2022/07/17 03:47:44;;;;;;;9.33;5.65;;;24.60;74.00;;;;;;1916974;75;21096;-60
2022/07/17 03:50:13;;;;;;;9.25;5.90;;;24.60;73.80;;;;;;1916972;75;21394;-60
2022/07/17 03:52:42;;;;;;;9.90;6.37;;;24.60;73.70;;;;;;1916891;75;21072;-61
2022/07/17 03:55:11;;;;;;;12.50;6.42;;;24.60;74.00;;;;;;1916782;75;21073;-61
2022/07/17 03:57:40;;;;;;;12.60;6.45;;;24.50;74.30;;;;;;1916824;75;21418;-61
2022/07/17 04:00:10;;;;;;;11.08;6.97;;;24.50;74.50;;;;;;1916789;75;21018;-61
2022/07/17 04:02:41;;;;;;;10.80;6.78;;;24.40;75.00;;;;;;1916868;75;20978;-61
2022/07/17 04:05:10;;;;;;;11.00;7.15;;;24.30;75.30;;;;;;1916913;75;21460;-61
2022/07/17 04:07:40;;;;;;;10.20;7.45;;;24.30;75.60;;;;;;1916788;75;21142;-61
2022/07/17 04:10:10;;;;;;;15.35;8.10;;;24.30;75.70;;;;;;1916879;75;20970;-61
2022/07/17 04:12:39;;;;;;;11.43;7.55;;;24.30;75.70;;;;;;1916849;75;21838;-61
2022/07/17 04:15:09;;;;;;;11.03;7.37;;;24.40;75.70;;;;;;1916899;75;21052;-61
2022/07/17 04:17:38;;;;;;;14.58;7.47;;;24.50;75.70;;;;;;1916428;75;21109;-61
2022/07/17 04:20:08;;;;;;;10.32;7.37;;;24.70;75.60;;;;;;1916275;75;21026;-62
2022/07/17 04:22:37;;;;;;;8.45;5.05;;;24.90;75.10;;;;;;1916813;75;20994;-62
2022/07/17 04:25:06;;;;;;;11.05;5.33;;;25.10;74.00;;;;;;1916802;75;21518;-62
2022/07/17 04:27:35;;;;;;;8.20;6.03;;;25.20;73.50;;;;;;1916687;75;21056;-62
2022/07/17 04:30:04;;;;;;;24.57;6.17;;;25.30;73.10;;;;;;1919806;74;21014;-61
2022/07/17 04:32:33;;;;;;;10.25;6.40;;;25.40;72.90;;;;;;1923874;74;21002;-62
2022/07/17 04:35:02;;;;;;;9.98;5.45;;;25.60;72.50;;;;;;1923803;74;21064;-61
2022/07/17 04:37:31;;;;;;;8.20;5.70;;;25.70;72.20;;;;;;1923837;74;21154;-62
2022/07/17 04:40:00;;;;;;;9.80;5.55;;;25.80;71.70;;;;;;1923931;74;21052;-61
2022/07/17 04:42:29;;;;;;;13.10;5.90;;;25.90;71.20;;;;;;1923945;74;20997;-61
2022/07/17 04:44:58;;;;;;;10.70;6.50;;;26.00;71.10;;;;;;1923868;74;20989;-61
2022/07/17 04:47:27;;;;;;;8.40;6.20;;;26.10;70.90;;;;;;1923930;74;21048;-61
2022/07/17 04:49:56;;;;;;;14.07;7.25;;;26.20;70.40;;;;;;1923861;74;21052;-61
2022/07/17 04:52:25;;;;;;;9.90;5.65;;;26.20;70.20;;;;;;1923897;74;21026;-61
2022/07/17 04:54:54;;;;;;;13.88;5.80;;;26.30;70.20;;;;;;1923822;74;21526;-62
2022/07/17 04:57:23;;;;;;;13.13;6.45;;;26.40;70.00;;;;;;1923908;74;21051;-61
2022/07/17 04:59:52;;;;;;;8.15;5.17;;;26.50;69.60;;;;;;1923876;74;20974;-62
2022/07/17 05:02:22;;;;;;;13.40;5.80;;;26.60;69.40;;;;;;1923780;74;21457;-61
2022/07/17 05:04:51;;;;;;;9.95;5.85;;;26.70;69.10;;;;;;1923714;74;20994;-61
2022/07/17 05:07:20;;;;;;;9.65;5.17;;;26.80;68.60;;;;;;1923757;74;20978;-62
2022/07/17 05:09:49;;;;;;;8.68;5.33;;;27.00;68.40;;;;;;1923834;74;21143;-61
2022/07/17 05:12:18;;;;;;;12.73;5.97;;;27.00;68.10;;;;;;1923791;74;21006;-62
2022/07/17 05:14:47;;;;;;;7.30;5.03;;;27.10;67.80;;;;;;1923564;74;21014;-61
2022/07/17 05:17:16;;;;;;;7.37;5.00;;;27.20;67.40;;;;;;1923711;74;20974;-61
2022/07/17 05:19:45;;;;;;;8.33;4.97;;;27.30;67.00;;;;;;1923793;74;20994;-62
2022/07/17 05:22:15;;;;;;;7.17;4.78;;;27.20;66.70;;;;;;1923811;74;21061;-62
2022/07/17 05:24:44;;;;;;;8.63;5.03;;;27.20;66.90;;;;;;1923789;74;21472;-61
2022/07/17 05:27:13;;;;;;;7.25;5.08;;;27.20;67.10;;;;;;1923800;74;20983;-61
2022/07/17 05:29:42;;;;;;;9.90;4.65;;;27.30;66.80;;;;;;1923489;74;20998;-60
2022/07/17 05:32:11;;;;;;;7.42;4.80;;;27.40;66.40;;;;;;1916672;75;21002;-61
2022/07/17 05:34:40;;;;;;;9.20;5.08;;;27.40;65.70;;;;;;1916574;75;21002;-61
2022/07/17 05:37:09;;;;;;;5.65;4.62;;;27.40;65.60;;;;;;1916763;75;21401;-61
2022/07/17 05:39:39;;;;;;;9.90;4.58;;;27.50;65.30;;;;;;1916904;75;21060;-61
2022/07/17 05:42:08;;;;;;;15.15;5.08;;;27.50;65.20;;;;;;1916734;75;21006;-61
2022/07/17 05:44:37;;;;;;;8.38;4.65;;;27.60;65.90;;;;;;1916821;75;21421;-61
2022/07/17 05:47:06;;;;;;;9.48;4.90;;;27.70;65.30;;;;;;1916791;75;21078;-61
2022/07/17 05:49:35;;;;;;;12.07;5.08;;;27.80;65.30;;;;;;1916692;75;21048;-61
2022/07/17 05:52:04;;;;;;;7.60;4.78;;;27.90;64.40;;;;;;1916766;75;21449;-61
2022/07/17 05:54:33;;;;;;;8.30;3.85;;;28.00;64.10;;;;;;1916620;75;21433;-61
2022/07/17 05:57:02;;;;;;;4.78;3.83;;;28.10;63.90;;;;;;1916828;75;21495;-61
2022/07/17 05:59:31;;;;;;;5.62;4.33;;;28.20;63.30;;;;;;1916777;75;21053;-61
2022/07/17 06:02:00;;;;;;;7.37;4.10;;;28.20;62.60;;;;;;1916727;75;20994;-60
2022/07/17 06:04:29;;;;;;;5.10;3.98;;;28.20;62.20;;;;;;1916746;75;21509;-60
2022/07/17 06:06:58;;;;;;;7.85;4.35;;;28.30;62.40;;;;;;1916740;75;21068;-61
2022/07/17 06:09:27;;;;;;;7.30;4.20;;;28.40;62.50;;;;;;1916826;75;20999;-60
2022/07/17 06:11:56;;;;;;;8.33;4.83;;;28.40;62.10;;;;;;1916706;75;21393;-61
2022/07/17 06:14:25;;;;;;;5.28;3.98;;;28.50;62.10;;;;;;1916790;75;21006;-60
2022/07/17 06:16:54;;;;;;;8.75;4.37;;;28.60;61.80;;;;;;1916783;75;20994;-61
2022/07/17 06:19:22;;;;;;;10.75;4.45;;;28.60;61.70;;;;;;1916762;75;21460;-61
2022/07/17 06:21:51;;;;;;;5.12;3.83;;;28.60;61.50;;;;;;1916860;75;21058;-61
2022/07/17 06:24:20;;;;;;;4.90;3.95;;;28.60;61.30;;;;;;1916768;75;20982;-60
2022/07/17 06:26:50;;;;;;;11.15;4.75;;;28.70;60.60;;;;;;1916853;75;21002;-61
2022/07/17 06:29:19;;;;;;;11.97;4.08;;;28.70;61.10;;;;;;1916751;75;21095;-61
2022/07/17 06:31:48;;;;;;;6.65;3.80;;;28.70;60.50;;;;;;1921008;74;21026;-61
2022/07/17 06:34:18;;;;;;;5.85;4.10;;;28.80;60.10;;;;;;1923792;74;20990;-61
2022/07/17 06:36:47;;;;;;;7.17;4.00;;;28.80;60.10;;;;;;1924029;74;20998;-61
2022/07/17 06:39:15;;;;;;;9.28;4.75;;;28.90;60.30;;;;;;1923910;74;20982;-61
2022/07/17 06:41:44;;;;;;;7.12;4.10;;;29.00;60.30;;;;;;1923899;74;21441;-61
2022/07/17 06:44:13;;;;;;;7.67;3.92;;;29.10;60.40;;;;;;1923927;74;20974;-61
2022/07/17 06:46:42;;;;;;;7.65;4.53;;;29.30;59.80;;;;;;1923935;74;20990;-61
2022/07/17 06:49:11;;;;;;;8.33;3.90;;;29.30;59.30;;;;;;1923994;74;20978;-61
2022/07/17 06:51:40;;;;;;;5.22;3.83;;;29.40;59.50;;;;;;1923966;74;20982;-61
2022/07/17 06:54:10;;;;;;;5.60;3.92;;;29.50;59.10;;;;;;1923879;74;20966;-61
2022/07/17 06:56:39;;;;;;;4.70;4.12;;;29.60;58.50;;;;;;1924008;74;21587;-61
2022/07/17 06:59:08;;;;;;;5.33;3.60;;;29.60;58.50;;;;;;1923925;74;20986;-61
2022/07/17 07:01:38;;;;;;;7.67;3.60;;;29.70;58.40;;;;;;1923813;74;21034;-61
2022/07/17 07:04:07;;;;;;;7.75;3.67;;;29.70;58.10;;;;;;1923930;74;21542;-61
2022/07/17 07:06:36;;;;;;;7.90;4.00;;;29.80;58.40;;;;;;1923940;74;20990;-61
2022/07/17 07:09:05;;;;;;;5.62;3.58;;;29.80;58.20;;;;;;1923904;74;21065;-61
2022/07/17 07:11:34;;;;;;;5.08;3.70;;;29.80;57.90;;;;;;1923856;74;21472;-61
2022/07/17 07:14:03;;;;;;;6.53;4.00;;;29.80;57.80;;;;;;1923878;74;20990;-61
2022/07/17 07:16:32;;;;;;;5.90;3.55;;;29.70;58.40;;;;;;1923962;74;21056;-61
2022/07/17 07:19:01;;;;;;;5.40;3.72;;;29.80;57.80;;;;;;1923864;74;21448;-61
2022/07/17 07:21:30;;;;;;;5.37;4.35;;;29.80;57.50;;;;;;1923851;74;21002;-60
2022/07/17 07:23:59;;;;;;;7.83;3.83;;;29.70;57.30;;;;;;1923927;74;21046;-61
2022/07/17 07:26:28;;;;;;;6.62;3.60;;;29.60;57.20;;;;;;1924011;74;21481;-61
2022/07/17 07:28:57;;;;;;;5.80;3.70;;;29.50;57.40;;;;;;1923865;74;20990;-61
2022/07/17 07:31:26;;;;;;;3.65;3.35;;;29.60;57.40;;;;;;1923831;74;21002;-61
2022/07/17 07:33:55;;;;;;;4.95;3.20;;;29.60;57.30;;;;;;1923957;74;21026;-61
2022/07/17 07:36:24;;;;;;;5.47;3.65;;;29.70;57.30;;;;;;1923826;74;21088;-61
2022/07/17 07:38:53;;;;;;;5.80;2.85;;;29.80;56.90;;;;;;1923814;74;21068;-61
2022/07/17 07:41:22;;;;;;;6.97;3.40;;;29.80;56.40;;;;;;1923742;74;20986;-61
2022/07/17 07:43:51;;;;;;;16.60;4.85;;;29.80;56.40;;;;;;1923925;74;21471;-61
2022/07/17 07:46:20;;;;;;;5.25;3.30;;;29.80;56.30;;;;;;1923865;74;20975;-61
2022/07/17 07:48:49;;;;;;;6.20;3.98;;;29.80;56.30;;;;;;1923832;74;21056;-61
2022/07/17 07:51:18;;;;;;;4.17;3.47;;;29.80;56.70;;;;;;1923874;74;20994;-61
2022/07/17 07:53:47;;;;;;;7.55;3.80;;;29.90;56.40;;;;;;1923948;74;20971;-61
2022/07/17 07:56:16;;;;;;;4.72;3.50;;;30.00;56.10;;;;;;1923975;74;20986;-61
2022/07/17 07:58:45;;;;;;;5.85;3.58;;;30.10;56.00;;;;;;1923941;74;21002;-61
2022/07/17 08:01:14;;;;;;;6.72;3.30;;;30.30;55.60;;;;;;1923772;74;20967;-61
2022/07/17 08:03:43;;;;;;;4.28;2.87;;;30.40;55.80;;;;;;1923769;74;21055;-61
2022/07/17 08:06:14;;;;;;;4.78;3.62;;;30.40;54.80;;;;;;1923924;74;21013;-61
2022/07/17 08:08:42;;;;;;;7.12;3.30;;;30.40;54.20;;;;;;1923857;74;20994;-61
2022/07/17 08:11:11;;;;;;;3.20;2.80;;;30.40;53.90;;;;;;1923919;74;20990;-61
2022/07/17 08:13:41;;;;;;;5.12;2.40;;;30.50;53.70;;;;;;1923961;74;21053;-61
2022/07/17 08:16:10;;;;;;;3.50;2.25;;;30.60;53.10;;;;;;1923814;74;21081;-61
2022/07/17 08:18:39;;;;;;;3.15;2.02;;;30.60;51.80;;;;;;1924003;74;20995;-62
2022/07/17 08:21:07;;;;;;;4.20;2.25;;;30.60;51.50;;;;;;1923766;74;21646;-62
2022/07/17 08:23:36;;;;;;;3.98;2.60;;;30.60;51.20;;;;;;1923980;74;21068;-62
2022/07/17 08:26:05;;;;;;;3.33;2.42;;;30.60;50.70;;;;;;1923886;74;21079;-62
2022/07/17 08:28:34;;;;;;;4.55;2.17;;;30.70;51.00;;;;;;1923925;74;21014;-62
2022/07/17 08:31:03;;;;;;;2.65;2.08;;;30.80;50.90;;;;;;1924024;74;21491;-62
2022/07/17 08:33:32;;;;;;;3.40;2.75;;;30.80;50.40;;;;;;1918424;73;21053;-62
2022/07/17 08:36:01;;;;;;;6.05;2.27;;;30.90;50.60;;;;;;1916788;75;21011;-62
2022/07/17 08:38:30;;;;;;;3.52;2.70;;;30.90;51.00;;;;;;1916819;75;21425;-62
2022/07/17 08:40:59;;;;;;;5.00;3.17;;;31.00;51.20;;;;;;1916936;75;21005;-62
2022/07/17 08:43:29;;;;;;;4.70;3.42;;;31.10;51.30;;;;;;1916843;75;21048;-62
2022/07/17 08:45:59;;;;;;;7.87;3.08;;;31.20;51.40;;;;;;1916892;75;21523;-62
2022/07/17 08:48:30;;;;;;;8.10;3.12;;;31.20;50.50;;;;;;1916814;75;21076;-62
2022/07/17 08:51:01;;;;;;;9.03;2.37;;;31.30;50.50;;;;;;1916923;75;21021;-62
2022/07/17 08:53:30;;;;;;;3.98;2.67;;;31.30;50.30;;;;;;1916818;75;20990;-62
2022/07/17 08:55:59;;;;;;;9.35;4.10;;;31.40;50.20;;;;;;1916746;75;20966;-62
2022/07/17 08:58:28;;;;;;;9.38;3.98;;;31.40;50.20;;;;;;1916696;75;21002;-62
2022/07/17 09:00:57;;;;;;;8.25;2.72;;;31.40;50.00;;;;;;1916728;75;21010;-62
2022/07/17 09:03:26;;;;;;;5.50;3.05;;;31.40;49.80;;;;;;1916847;75;21431;-62
2022/07/17 09:05:55;;;;;;;5.17;2.80;;;31.50;50.00;;;;;;1916850;75;21060;-62
2022/07/17 09:08:25;;;;;;;3.33;3.05;;;31.50;50.30;;;;;;1916864;75;20994;-61
2022/07/17 09:10:54;;;;;;;5.33;2.95;;;31.50;50.30;;;;;;1916853;75;21022;-62
2022/07/17 09:13:31;;;;;;;7.37;3.27;;;31.60;50.80;;;;;;1916937;75;21522;-61
2022/07/17 09:16:10;;;;;;;5.87;3.02;;;31.60;50.80;;;;;;1916830;75;20986;-62
2022/07/17 09:18:48;;;;;;;4.17;3.00;;;31.60;50.60;;;;;;1916866;75;20978;-61
2022/07/17 09:21:25;;;;;;;6.85;3.15;;;31.70;50.60;;;;;;1916945;75;21420;-61
2022/07/17 09:24:02;;;;;;;5.22;3.20;;;31.70;50.80;;;;;;1916923;75;21461;-61
2022/07/17 09:26:32;;;;;;;9.38;3.70;;;31.70;50.60;;;;;;1916736;75;20999;-61
2022/07/17 09:29:03;;;;;;;5.30;2.90;;;31.70;50.60;;;;;;1916923;75;21002;-61
2022/07/17 09:31:34;;;;;;;4.65;3.25;;;31.80;50.30;;;;;;1916973;75;21093;-61
2022/07/17 09:34:03;;;;;;;6.37;2.62;;;31.80;50.50;;;;;;1916873;75;21038;-61
2022/07/17 09:36:32;;;;;;;4.17;2.58;;;31.80;49.90;;;;;;1916935;75;21492;-61
2022/07/17 09:39:01;;;;;;;4.22;3.02;;;31.80;49.30;;;;;;1916874;75;21021;-61
2022/07/17 09:41:33;;;;;;;6.85;3.35;;;31.80;49.80;;;;;;1916719;75;21030;-61
2022/07/17 09:44:01;;;;;;;3.47;2.77;;;31.90;49.90;;;;;;1916710;75;20971;-61
2022/07/17 09:46:33;;;;;;;13.65;3.87;;;31.90;50.10;;;;;;1916765;75;21118;-61
2022/07/17 09:49:10;;;;;;;5.50;3.55;;;32.00;50.60;;;;;;1916819;75;20998;-61
2022/07/17 09:51:40;;;;;;;3.70;3.30;;;31.90;50.50;;;;;;1916723;75;20990;-61
2022/07/17 09:54:13;;;;;;;5.35;3.08;;;32.00;50.70;;;;;;1916708;75;20974;-61
2022/07/17 09:56:43;;;;;;;7.73;3.53;;;32.00;50.50;;;;;;1917017;75;21068;-62
2022/07/17 09:59:14;;;;;;;6.17;3.47;;;32.10;50.20;;;;;;1916803;75;21187;-61
2022/07/17 10:01:44;;;;;;;4.78;2.98;;;32.20;50.10;;;;;;1916855;75;21437;-61
2022/07/17 10:04:14;;;;;;;8.58;6.70;;;32.30;50.10;;;;;;1916712;75;21014;-61
2022/07/17 10:06:43;;;;;;;6.17;3.50;;;32.50;50.00;;;;;;1916664;75;20990;-61
2022/07/17 10:09:13;;;;;;;9.48;3.22;;;32.70;49.80;;;;;;1916740;75;20974;-61
2022/07/17 10:11:43;;;;;;;5.25;3.40;;;32.70;49.70;;;;;;1916760;75;21453;-61
2022/07/17 10:14:13;;;;;;;4.05;3.27;;;32.70;49.50;;;;;;1916679;75;21445;-61
2022/07/17 10:16:45;;;;;;;4.62;2.70;;;32.60;49.10;;;;;;1916682;75;21068;-61
2022/07/17 10:19:18;;;;;;;4.83;2.85;;;32.40;49.10;;;;;;1916687;75;20966;-61
2022/07/17 10:22:01;;;;;;;7.33;3.20;;;32.20;49.00;;;;;;1916722;75;21000;-61
2022/07/17 10:24:30;;;;;;;7.95;2.65;;;32.00;49.40;;;;;;1916742;75;20994;-61
2022/07/17 10:27:00;;;;;;;4.25;3.22;;;31.90;49.60;;;;;;1916780;75;21070;-61
2022/07/17 10:29:39;;;;;;;4.10;3.80;;;31.80;49.60;;;;;;1916764;75;21068;-61
2022/07/17 10:32:11;;;;;;;3.67;2.80;;;31.80;49.70;;;;;;1916833;75;20999;-61
2022/07/17 10:34:51;;;;;;;3.98;2.90;;;31.80;50.00;;;;;;1921161;74;21496;-61
2022/07/17 10:37:23;;;;;;;26.35;8.98;;;31.90;49.90;;;;;;1923552;73;21060;-61
2022/07/17 10:39:57;;;;;;;5.80;2.92;;;31.90;49.60;;;;;;1923497;74;21039;-61
2022/07/17 10:42:41;;;;;;;6.20;2.92;;;31.80;50.00;;;;;;1923591;74;21006;-61
2022/07/17 10:45:15;;;;;;;3.45;2.70;;;31.80;50.20;;;;;;1923632;74;21030;-61
2022/07/17 10:47:56;;;;;;;6.70;2.92;;;31.90;50.00;;;;;;1923551;74;20994;-60
2022/07/17 10:50:36;;;;;;;5.08;2.85;;;31.90;49.80;;;;;;1923584;74;21010;-61
2022/07/17 10:53:18;;;;;;;7.08;5.17;;;31.90;50.00;;;;;;1923670;74;21002;-61
2022/07/17 10:55:49;;;;;;;6.05;2.90;;;31.90;50.50;;;;;;1923649;74;20962;-61
2022/07/17 10:58:23;;;;;;;6.45;2.90;;;32.00;50.10;;;;;;1923735;74;21002;-61
2022/07/17 11:01:12;;;;;;;5.28;2.67;;;32.00;50.00;;;;;;1919993;74;20994;-61
2022/07/17 11:03:47;;;;;;;8.15;3.58;;;32.20;49.80;;;;;;1923670;74;20987;-61
2022/07/17 11:06:18;;;;;;;2.83;2.47;;;32.20;48.70;;;;;;1923694;74;20978;-61
2022/07/17 11:08:53;;;;;;;6.62;3.17;;;32.30;48.90;;;;;;1923825;74;21506;-61
2022/07/17 11:11:36;;;;;;;6.70;3.40;;;32.30;48.90;;;;;;1923630;74;20962;-61
2022/07/17 11:14:18;;;;;;;4.67;2.98;;;32.40;49.00;;;;;;1923645;74;20986;-61
2022/07/17 11:16:49;;;;;;;5.30;2.90;;;32.40;49.20;;;;;;1923767;74;21508;-61
2022/07/17 11:19:38;;;;;;;7.17;2.85;;;32.50;48.50;;;;;;1923734;74;20997;-61
2022/07/17 11:22:10;;;;;;;10.38;2.70;;;32.50;48.50;;;;;;1923913;74;21002;-61
2022/07/17 11:24:44;;;;;;;5.37;2.87;;;32.60;48.50;;;;;;1923999;74;21526;-60
2022/07/17 11:27:15;;;;;;;5.53;3.08;;;32.70;48.60;;;;;;1924054;74;20978;-61
2022/07/17 11:29:44;;;;;;;4.33;2.75;;;32.80;48.40;;;;;;1921636;74;21010;-60
2022/07/17 11:32:13;;;;;;;7.60;3.35;;;32.90;48.20;;;;;;1923818;74;21417;-60
2022/07/17 11:34:42;;;;;;;2.85;2.52;;;32.80;48.40;;;;;;1920013;74;21088;-60
2022/07/17 11:37:12;;;;;;;4.40;2.52;;;32.70;48.30;;;;;;1916912;75;21485;-60
2022/07/17 11:39:49;;;;;;;10.70;2.92;;;32.70;48.10;;;;;;1916835;75;20967;-60
2022/07/17 11:42:20;;;;;;;3.08;2.77;;;32.70;48.30;;;;;;1916823;75;20990;-60
2022/07/17 11:44:55;;;;;;;6.55;2.90;;;32.80;48.30;;;;;;1916926;75;21097;-61
2022/07/17 11:47:29;;;;;;;4.83;2.80;;;32.70;48.20;;;;;;1916939;75;21080;-62
2022/07/17 11:50:14;;;;;;;4.23;2.93;;;32.70;48.30;;;;;;1917089;75;21057;-61
2022/07/17 11:52:51;;;;;;;8.03;3.08;;;32.70;48.20;;;;;;1916654;75;20994;-61
2022/07/17 11:55:20;;;;;;;7.12;2.35;;;32.70;48.50;;;;;;1916749;75;21056;-60
2022/07/17 11:57:50;;;;;;;7.92;2.30;;;32.80;48.30;;;;;;1916792;75;20978;-60
2022/07/17 12:00:20;;;;;;;6.05;2.62;;;33.00;48.10;;;;;;1916795;75;21048;-61
2022/07/17 12:03:04;;;;;;;3.70;2.35;;;33.00;47.80;;;;;;1916899;75;21465;-61
2022/07/17 12:05:35;;;;;;;5.05;2.77;;;33.10;47.30;;;;;;1916868;75;21010;-61
2022/07/17 12:08:06;;;;;;;8.48;2.75;;;33.20;47.00;;;;;;1916841;75;21437;-61
2022/07/17 12:10:35;;;;;;;3.62;2.45;;;33.10;46.60;;;;;;1916740;75;21010;-61
2022/07/17 12:13:05;;;;;;;5.50;3.15;;;33.10;46.70;;;;;;1916827;75;21449;-61
2022/07/17 12:15:37;;;;;;;3.35;2.90;;;33.10;46.50;;;;;;1916852;75;21014;-61
2022/07/17 12:18:09;;;;;;;4.72;2.30;;;33.10;46.60;;;;;;1916769;75;21022;-61
2022/07/17 12:20:46;;;;;;;3.80;2.40;;;33.20;46.70;;;;;;1916900;75;20998;-61
2022/07/17 12:23:38;;;;;;;4.62;2.30;;;33.30;46.30;;;;;;1916818;75;20966;-61
2022/07/17 12:26:10;;;;;;;4.90;2.50;;;33.20;45.60;;;;;;1845421;78;21039;-61
2022/07/17 12:28:40;;;;;;;3.62;2.35;;;33.20;45.90;;;;;;1899842;75;20994;-61
2022/07/17 12:31:10;;;;;;;6.67;2.00;;;33.10;46.30;;;;;;1916831;75;21060;-61
2022/07/17 12:33:57;;;;;;;8.08;4.50;;;33.10;45.90;;;;;;1916795;75;21537;-63
2022/07/17 12:36:26;;;;;;;4.58;2.10;;;33.10;45.90;;;;;;1916862;75;20986;-63
2022/07/17 12:38:55;;;;;;;5.20;2.52;;;33.20;46.00;;;;;;1916801;75;21508;-63
2022/07/17 12:41:24;;;;;;;5.97;2.22;;;33.20;45.70;;;;;;1916849;75;21024;-63
2022/07/17 12:43:53;;;;;;;5.92;2.22;;;33.20;46.10;;;;;;1916849;75;20966;-63
2022/07/17 12:46:21;;;;;;;5.58;2.58;;;33.20;46.50;;;;;;1916842;75;21445;-63
2022/07/17 12:48:51;;;;;;;4.40;2.30;;;33.20;46.30;;;;;;1916959;75;21025;-63
2022/07/17 12:51:19;;;;;;;4.87;2.55;;;33.30;46.00;;;;;;1916796;75;20990;-63
2022/07/17 12:53:49;;;;;;;3.52;2.50;;;33.30;46.10;;;;;;1916867;75;20999;-63
2022/07/17 12:56:17;;;;;;;5.58;2.25;;;33.40;46.00;;;;;;1916793;75;21069;-63
2022/07/17 12:58:49;;;;;;;4.75;2.42;;;33.40;45.50;;;;;;1916771;75;21006;-63
2022/07/17 13:01:18;;;;;;;5.10;2.00;;;33.40;45.30;;;;;;1916871;75;20990;-63